Terminal Aerodrome Forecast
Issued by NWS

Home | Current Version | Previous Version | Text Only | Print | Product List | Glossary On
Versions: 1 2 3 4 5 6 7 8 9 10 11 12 13 14 15 16 17 18 19
000
FTPQ31 PGUM 150339 AAN
TAFKMJ
TAF AMD
PKMJ 150339Z 1504/1524 14011KT P6SM VCSH SCT014 BKN045 BKN120
     FM150500 07014KT P6SM VCSH SCT015 SCT050 BKN120=

USA.gov is the U.S. government's official web portal to all federal, state and local government web resources and services.